createdAt,value
2023-03-15T00:01:49.286Z,3.40
2023-03-15T00:04:22.488Z,3.30
2023-03-15T00:06:56.130Z,3.30
2023-03-15T00:09:29.179Z,3.20
2023-03-15T00:12:02.223Z,3.20
2023-03-15T00:14:38.007Z,3.20
2023-03-15T00:17:11.783Z,3.30
2023-03-15T00:19:44.831Z,3.20
2023-03-15T00:22:17.839Z,3.20
2023-03-15T00:24:50.914Z,3.20
2023-03-15T00:27:23.904Z,3.20
2023-03-15T00:29:58.272Z,3.20
2023-03-15T00:32:31.786Z,3.10
2023-03-15T00:35:05.481Z,3.10
2023-03-15T00:37:38.593Z,3.10
2023-03-15T00:40:13.225Z,3.00
2023-03-15T00:42:49.998Z,3.00
2023-03-15T00:45:24.543Z,3.10
2023-03-15T00:47:57.584Z,3.10
2023-03-15T00:50:30.632Z,3.10
2023-03-15T00:53:03.657Z,3.10
2023-03-15T00:55:37.113Z,3.10
2023-03-15T00:58:10.413Z,3.10
2023-03-15T01:00:44.887Z,3.00
2023-03-15T01:03:17.890Z,2.90
2023-03-15T01:05:50.910Z,2.90
2023-03-15T01:08:24.222Z,2.90
2023-03-15T01:10:57.369Z,2.90
2023-03-15T01:13:30.535Z,2.90
2023-03-15T01:16:05.730Z,2.90
2023-03-15T01:18:39.618Z,2.90
2023-03-15T01:21:15.233Z,2.90
2023-03-15T01:23:48.557Z,3.00
2023-03-15T01:26:21.975Z,2.90
2023-03-15T01:28:56.183Z,2.90
2023-03-15T01:31:32.119Z,2.90
2023-03-15T01:34:05.191Z,2.90
2023-03-15T01:36:38.271Z,2.90
2023-03-15T01:39:11.347Z,2.90
2023-03-15T01:41:44.393Z,2.90
2023-03-15T01:44:19.346Z,2.80
2023-03-15T01:46:53.997Z,2.80
2023-03-15T01:49:31.187Z,2.80
2023-03-15T01:52:09.184Z,2.70
2023-03-15T01:54:45.203Z,2.70
2023-03-15T01:57:23.595Z,2.70
2023-03-15T02:00:07.196Z,2.70
2023-03-15T02:02:47.125Z,2.60
2023-03-15T02:05:23.443Z,2.60
2023-03-15T02:07:57.193Z,2.60
2023-03-15T02:10:36.935Z,2.60
2023-03-15T02:13:10.764Z,2.60
2023-03-15T02:15:46.604Z,2.60
2023-03-15T02:18:22.272Z,2.60
2023-03-15T02:21:06.376Z,2.70
2023-03-15T02:23:39.544Z,2.70
2023-03-15T02:26:23.792Z,2.80
2023-03-15T02:28:58.256Z,2.70
2023-03-15T02:31:37.885Z,2.80
2023-03-15T02:34:11.309Z,2.70
2023-03-15T02:36:44.570Z,2.70
2023-03-15T02:39:20.689Z,2.80
2023-03-15T02:41:56.776Z,2.70
2023-03-15T02:44:35.177Z,2.80
2023-03-15T02:47:13.869Z,2.80
2023-03-15T02:49:53.740Z,2.80
2023-03-15T02:52:26.878Z,2.80
2023-03-15T02:54:59.894Z,2.70
2023-03-15T02:57:32.897Z,2.80
2023-03-15T03:00:14.344Z,2.80
2023-03-15T03:02:49.497Z,2.80
2023-03-15T03:05:23.120Z,2.80
2023-03-15T03:07:56.175Z,2.80
2023-03-15T03:10:29.852Z,2.80
2023-03-15T03:13:02.890Z,2.70
2023-03-15T03:15:37.240Z,2.70
2023-03-15T03:18:10.225Z,2.80
2023-03-15T03:20:46.153Z,2.90
2023-03-15T03:23:19.644Z,2.90
2023-03-15T03:25:53.918Z,2.90
2023-03-15T03:28:30.202Z,2.90
2023-03-15T03:31:04.816Z,2.80
2023-03-15T03:33:37.898Z,2.90
2023-03-15T03:36:13.098Z,2.90
2023-03-15T03:38:48.029Z,2.90
2023-03-15T03:41:22.035Z,2.90
2023-03-15T03:43:55.086Z,2.90
2023-03-15T03:46:29.553Z,2.90
2023-03-15T03:49:02.873Z,2.90
2023-03-15T03:51:36.338Z,2.90
2023-03-15T03:54:09.393Z,2.90
2023-03-15T03:56:42.386Z,2.90
2023-03-15T03:59:15.828Z,2.90
2023-03-15T04:01:51.228Z,2.90
2023-03-15T04:04:26.510Z,2.80
2023-03-15T04:06:59.621Z,2.90
2023-03-15T04:09:37.247Z,2.80
2023-03-15T04:12:11.119Z,2.80
2023-03-15T04:14:44.231Z,2.80
2023-03-15T04:17:18.926Z,2.80
2023-03-15T04:19:51.981Z,2.80
2023-03-15T04:22:25.173Z,2.90
2023-03-15T04:24:58.548Z,2.90
2023-03-15T04:27:31.795Z,2.80
2023-03-15T04:30:05.806Z,2.80
2023-03-15T04:32:42.512Z,2.80
2023-03-15T04:35:15.748Z,2.80
2023-03-15T04:37:48.783Z,2.80
2023-03-15T04:40:24.002Z,2.90
2023-03-15T04:42:57.840Z,2.80
2023-03-15T04:45:31.748Z,2.80
2023-03-15T04:48:06.575Z,2.70
2023-03-15T04:50:39.619Z,2.70
2023-03-15T04:53:12.724Z,2.70
2023-03-15T04:55:45.881Z,2.60
2023-03-15T04:58:20.452Z,2.60
2023-03-15T05:00:54.961Z,2.50
2023-03-15T05:03:29.635Z,2.40
2023-03-15T05:06:08.014Z,2.40
2023-03-15T05:08:41.588Z,2.30
2023-03-15T05:11:15.020Z,2.30
2023-03-15T05:13:48.120Z,2.30
2023-03-15T05:16:21.264Z,2.20
2023-03-15T05:18:57.072Z,2.10
2023-03-15T05:21:30.065Z,2.00
2023-03-15T05:24:03.992Z,2.00
2023-03-15T05:26:36.974Z,2.00
2023-03-15T05:29:10.003Z,1.90
2023-03-15T05:31:43.119Z,1.80
2023-03-15T05:34:17.508Z,1.70
2023-03-15T05:36:51.152Z,1.70
2023-03-15T05:39:24.424Z,1.70
2023-03-15T05:41:57.462Z,1.60
2023-03-15T05:44:30.497Z,1.70
2023-03-15T05:47:03.528Z,1.60
2023-03-15T05:49:37.993Z,1.60
2023-03-15T05:52:11.154Z,1.50
2023-03-15T05:54:44.385Z,1.50
2023-03-15T05:57:17.409Z,1.40
2023-03-15T05:59:50.492Z,1.40
2023-03-15T06:02:23.728Z,1.40
2023-03-15T06:04:58.116Z,1.40
2023-03-15T06:07:31.162Z,1.40
2023-03-15T06:10:04.970Z,1.40
2023-03-15T06:12:38.060Z,1.40
2023-03-15T06:15:12.452Z,1.40
2023-03-15T06:17:45.461Z,1.40
2023-03-15T06:20:20.284Z,1.40
2023-03-15T06:22:53.316Z,1.50
2023-03-15T06:25:26.387Z,1.70
2023-03-15T06:27:59.548Z,1.80
2023-03-15T06:30:32.616Z,1.90
2023-03-15T06:33:05.703Z,2.10
2023-03-15T06:35:40.825Z,2.30
2023-03-15T06:38:15.257Z,2.30
2023-03-15T06:40:48.298Z,2.40
2023-03-15T06:43:21.473Z,2.70
2023-03-15T06:45:55.878Z,2.90
2023-03-15T06:48:29.614Z,3.20
2023-03-15T06:51:05.889Z,3.40
2023-03-15T06:53:38.951Z,3.60
2023-03-15T06:56:12.413Z,3.70
2023-03-15T06:58:45.477Z,3.90
2023-03-15T07:01:18.482Z,4.10
2023-03-15T07:03:51.548Z,4.20
2023-03-15T07:06:27.683Z,4.40
2023-03-15T07:09:00.757Z,4.70
2023-03-15T07:11:34.392Z,4.80
2023-03-15T07:14:07.457Z,4.90
2023-03-15T07:16:40.539Z,5.00
2023-03-15T07:19:13.591Z,5.10
2023-03-15T07:21:48.006Z,5.20
2023-03-15T07:24:21.061Z,5.30
2023-03-15T07:26:56.399Z,5.30
2023-03-15T07:29:29.482Z,5.40
2023-03-15T07:32:02.925Z,5.50
2023-03-15T07:34:36.001Z,5.70
2023-03-15T07:37:10.965Z,5.90
2023-03-15T07:39:44.132Z,5.90
2023-03-15T07:42:17.528Z,5.90
2023-03-15T07:44:50.748Z,6.00
2023-03-15T07:47:23.825Z,5.80
2023-03-15T07:49:56.845Z,5.90
2023-03-15T07:52:31.560Z,5.80
2023-03-15T07:55:08.318Z,6.00
2023-03-15T07:57:41.376Z,6.10
2023-03-15T08:00:16.141Z,6.10
2023-03-15T08:02:49.325Z,6.20
2023-03-15T08:05:22.872Z,6.40
2023-03-15T08:07:57.401Z,6.40
2023-03-15T08:10:30.610Z,6.40
2023-03-15T08:13:03.633Z,6.60
2023-03-15T08:15:36.646Z,6.80
2023-03-15T08:18:09.769Z,6.70
2023-03-15T08:20:42.810Z,6.90
2023-03-15T08:23:17.269Z,6.80
2023-03-15T08:25:51.202Z,6.80
2023-03-15T08:28:24.193Z,6.90
2023-03-15T08:30:57.246Z,7.20
2023-03-15T08:33:30.464Z,7.40
2023-03-15T08:36:03.663Z,7.50
2023-03-15T08:38:38.742Z,7.40
2023-03-15T08:41:11.841Z,7.40
2023-03-15T08:43:44.913Z,7.60
2023-03-15T08:46:18.033Z,7.70
2023-03-15T08:48:51.102Z,7.70
2023-03-15T08:51:25.481Z,7.80
2023-03-15T08:53:59.863Z,7.80
2023-03-15T08:56:33.676Z,7.90
2023-03-15T08:59:06.704Z,7.90
2023-03-15T09:01:40.844Z,8.00
2023-03-15T09:04:14.058Z,7.80
2023-03-15T09:06:47.098Z,7.90
2023-03-15T09:09:21.573Z,7.80
2023-03-15T09:11:55.512Z,7.90
2023-03-15T09:14:28.997Z,7.90
2023-03-15T09:17:02.085Z,8.00
2023-03-15T09:19:35.102Z,8.10
2023-03-15T09:22:16.967Z,8.10
2023-03-15T09:24:58.065Z,8.10
2023-03-15T09:27:31.607Z,8.20
2023-03-15T09:30:06.277Z,8.40
2023-03-15T09:32:39.379Z,8.50
2023-03-15T09:35:17.425Z,8.50
2023-03-15T09:37:51.939Z,8.60
2023-03-15T09:40:30.144Z,8.40
2023-03-15T09:43:16.868Z,8.10
2023-03-15T09:46:04.551Z,8.20
2023-03-15T09:48:43.939Z,8.50
2023-03-15T09:51:30.273Z,8.70
2023-03-15T09:54:06.837Z,8.70
2023-03-15T09:56:45.744Z,8.80
2023-03-15T09:59:23.084Z,8.90
2023-03-15T10:01:57.955Z,8.60
2023-03-15T10:04:37.217Z,8.60
2023-03-15T10:07:16.478Z,8.60
2023-03-15T10:09:49.580Z,8.80
2023-03-15T10:12:30.971Z,9.00
2023-03-15T10:15:36.528Z,9.00
2023-03-15T10:18:28.033Z,9.00
2023-03-15T10:21:10.371Z,9.10
2023-03-15T10:23:51.172Z,9.30
2023-03-15T10:26:29.316Z,9.20
2023-03-15T10:29:10.216Z,9.10
2023-03-15T10:31:47.557Z,9.00
2023-03-15T10:34:21.958Z,8.90
2023-03-15T10:36:55.477Z,8.60
2023-03-15T10:39:28.643Z,8.50
2023-03-15T10:42:01.633Z,8.50
2023-03-15T10:44:38.659Z,8.40
2023-03-15T10:47:23.654Z,8.50
2023-03-15T10:50:00.333Z,8.30
2023-03-15T10:52:37.421Z,8.20
2023-03-15T10:55:16.545Z,8.20
2023-03-15T10:57:55.995Z,8.10
2023-03-15T11:00:33.835Z,8.10
2023-03-15T11:03:13.175Z,8.10
2023-03-15T11:05:49.247Z,8.10
2023-03-15T11:08:25.325Z,8.00
2023-03-15T11:11:00.838Z,8.00
2023-03-15T11:13:36.075Z,8.10
2023-03-15T11:16:22.923Z,8.10
2023-03-15T11:18:59.908Z,8.10
2023-03-15T11:21:35.345Z,8.30
2023-03-15T11:24:10.996Z,8.20
2023-03-15T11:26:51.461Z,8.40
2023-03-15T11:29:28.733Z,8.50
2023-03-15T11:32:13.771Z,8.50
2023-03-15T11:34:53.983Z,8.60
2023-03-15T11:37:34.323Z,8.70
2023-03-15T11:40:17.541Z,8.70
2023-03-15T11:42:56.081Z,8.30
2023-03-15T11:45:35.862Z,8.30
2023-03-15T11:48:19.194Z,8.30
2023-03-15T11:50:54.980Z,8.30
2023-03-15T11:53:35.625Z,8.20
2023-03-15T11:56:24.789Z,8.10
2023-03-15T11:59:08.560Z,8.00
2023-03-15T12:01:48.411Z,7.80
2023-03-15T12:04:45.132Z,7.70
2023-03-15T12:07:39.798Z,7.60
2023-03-15T12:10:39.237Z,7.70
2023-03-15T12:13:27.608Z,7.70
2023-03-15T12:16:00.749Z,7.50
2023-03-15T12:18:41.175Z,7.30
2023-03-15T12:21:23.609Z,7.30
2023-03-15T12:24:05.191Z,7.30
2023-03-15T12:26:45.328Z,7.20
2023-03-15T12:29:25.639Z,7.20
2023-03-15T12:32:08.639Z,7.20
2023-03-15T12:34:49.228Z,7.10
2023-03-15T12:37:28.683Z,7.10
2023-03-15T12:40:26.558Z,7.10
2023-03-15T12:43:04.740Z,7.10
2023-03-15T12:45:55.726Z,7.10
2023-03-15T12:48:29.899Z,7.10
2023-03-15T12:51:14.476Z,7.10
2023-03-15T12:53:53.986Z,7.20
2023-03-15T12:56:54.251Z,7.30
2023-03-15T12:59:34.313Z,7.20
2023-03-15T13:02:42.199Z,7.40
2023-03-15T13:05:24.599Z,7.30
2023-03-15T13:08:09.499Z,7.10
2023-03-15T13:11:00.661Z,7.00
2023-03-15T13:14:04.521Z,7.00
2023-03-15T13:16:45.355Z,6.90
2023-03-15T13:19:23.550Z,6.80
2023-03-15T13:22:15.127Z,6.90
2023-03-15T13:24:58.644Z,6.80
2023-03-15T13:27:48.672Z,6.70
2023-03-15T13:30:41.321Z,6.60
2023-03-15T13:33:23.148Z,6.20
2023-03-15T13:35:58.819Z,6.30
2023-03-15T13:38:34.378Z,6.20
2023-03-15T13:41:17.429Z,6.20
2023-03-15T13:43:53.900Z,6.10
2023-03-15T13:46:31.084Z,5.80
2023-03-15T13:49:04.123Z,5.70
2023-03-15T13:51:39.120Z,5.60
2023-03-15T13:54:18.465Z,5.60
2023-03-15T13:57:03.605Z,5.50
2023-03-15T13:59:43.862Z,5.40
2023-03-15T14:02:21.202Z,5.50
2023-03-15T14:05:03.006Z,5.80
2023-03-15T14:07:40.005Z,5.70
2023-03-15T14:10:31.830Z,5.70
2023-03-15T14:13:24.512Z,5.60
2023-03-15T14:16:02.482Z,5.60
2023-03-15T14:18:37.862Z,5.60
2023-03-15T14:21:16.626Z,5.70
2023-03-15T14:23:50.489Z,5.70
2023-03-15T14:26:29.077Z,5.70
2023-03-15T14:29:08.496Z,5.70
2023-03-15T14:31:50.697Z,5.70
2023-03-15T14:34:33.537Z,5.80
2023-03-15T14:37:28.985Z,5.80
2023-03-15T14:40:20.119Z,5.80
2023-03-15T14:42:53.200Z,5.80
2023-03-15T14:45:27.424Z,5.70
2023-03-15T14:48:05.461Z,5.70
2023-03-15T14:50:40.801Z,5.70
2023-03-15T14:53:18.597Z,5.70
2023-03-15T14:55:51.787Z,5.80
2023-03-15T14:58:24.951Z,5.80
2023-03-15T15:00:58.871Z,5.80
2023-03-15T15:03:39.171Z,5.80
2023-03-15T15:06:15.643Z,5.90
2023-03-15T15:08:50.128Z,6.00
2023-03-15T15:11:23.244Z,6.10
2023-03-15T15:13:56.688Z,6.30
2023-03-15T15:16:29.816Z,6.50
2023-03-15T15:19:04.661Z,6.70
2023-03-15T15:21:39.227Z,7.00
2023-03-15T15:24:16.909Z,6.90
2023-03-15T15:26:50.058Z,6.70
2023-03-15T15:29:24.129Z,6.60
2023-03-15T15:31:57.225Z,6.50
2023-03-15T15:34:33.949Z,6.30
2023-03-15T15:37:07.011Z,6.20
2023-03-15T15:39:41.498Z,6.00
2023-03-15T15:42:14.537Z,5.90
2023-03-15T15:44:47.542Z,6.00
2023-03-15T15:47:20.576Z,5.90
2023-03-15T15:49:54.935Z,5.70
2023-03-15T15:52:27.973Z,5.80
2023-03-15T15:55:02.266Z,5.90
2023-03-15T15:57:35.319Z,5.80
2023-03-15T16:00:14.020Z,5.80
2023-03-15T16:02:47.423Z,5.70
2023-03-15T16:05:24.074Z,5.70
2023-03-15T16:08:01.492Z,5.60
2023-03-15T16:10:35.376Z,5.60
2023-03-15T16:13:11.740Z,5.60
2023-03-15T16:15:45.143Z,5.60
2023-03-15T16:18:18.256Z,5.50
2023-03-15T16:20:53.018Z,5.40
2023-03-15T16:23:26.893Z,5.40
2023-03-15T16:26:00.026Z,5.40
2023-03-15T16:28:33.222Z,5.30
2023-03-15T16:31:06.569Z,5.20
2023-03-15T16:33:39.777Z,5.00
2023-03-15T16:36:20.710Z,4.90
2023-03-15T16:38:53.739Z,4.90
2023-03-15T16:41:26.920Z,4.80
2023-03-15T16:44:01.271Z,4.80
2023-03-15T16:46:34.385Z,4.90
2023-03-15T16:49:07.708Z,4.80
2023-03-15T16:51:46.021Z,4.80
2023-03-15T16:54:38.273Z,4.80
2023-03-15T16:57:19.797Z,4.80
2023-03-15T16:59:53.290Z,4.80
2023-03-15T17:02:28.929Z,4.70
2023-03-15T17:05:01.957Z,4.70
2023-03-15T17:07:40.371Z,4.70
2023-03-15T17:10:23.098Z,4.60
2023-03-15T17:12:57.632Z,4.60
2023-03-15T17:15:31.552Z,4.50
2023-03-15T17:18:04.881Z,4.50
2023-03-15T17:20:38.178Z,4.50
2023-03-15T17:23:13.482Z,4.50
2023-03-15T17:25:46.586Z,4.40
2023-03-15T17:28:19.943Z,4.30
2023-03-15T17:30:59.801Z,4.30
2023-03-15T17:33:42.485Z,4.30
2023-03-15T17:36:19.541Z,4.30
2023-03-15T17:38:55.360Z,4.20
2023-03-15T17:41:31.433Z,4.20
2023-03-15T17:44:05.211Z,4.20
2023-03-15T17:46:38.355Z,4.20
2023-03-15T17:49:13.242Z,4.10
2023-03-15T17:51:46.576Z,4.10
2023-03-15T17:54:22.335Z,4.00
2023-03-15T17:56:56.879Z,4.00
2023-03-15T17:59:29.888Z,3.90
2023-03-15T18:02:02.999Z,3.90
2023-03-15T18:04:36.682Z,3.80
2023-03-15T18:07:09.772Z,3.80
2023-03-15T18:09:44.093Z,3.80
2023-03-15T18:12:17.956Z,3.70
2023-03-15T18:14:50.978Z,3.60
2023-03-15T18:17:23.955Z,3.60
2023-03-15T18:19:56.974Z,3.60
2023-03-15T18:22:30.060Z,3.50
2023-03-15T18:25:05.040Z,3.40
2023-03-15T18:27:38.078Z,3.40
2023-03-15T18:30:13.348Z,3.30
2023-03-15T18:32:47.074Z,3.30
2023-03-15T18:35:23.532Z,3.20
2023-03-15T18:37:57.539Z,3.20
2023-03-15T18:40:34.667Z,3.10
2023-03-15T18:43:07.758Z,3.10
2023-03-15T18:45:40.846Z,3.00
2023-03-15T18:48:13.943Z,2.90
2023-03-15T18:50:47.108Z,2.80
2023-03-15T18:53:20.186Z,2.70
2023-03-15T18:55:54.631Z,2.70
2023-03-15T18:58:27.738Z,2.70
2023-03-15T19:01:01.069Z,2.60
2023-03-15T19:03:34.124Z,2.60
2023-03-15T19:06:09.702Z,2.60
2023-03-15T19:08:43.005Z,2.60
2023-03-15T19:11:17.368Z,2.60
2023-03-15T19:13:51.187Z,2.70
2023-03-15T19:16:25.326Z,2.70
2023-03-15T19:18:58.322Z,2.80
2023-03-15T19:21:31.382Z,2.90
2023-03-15T19:24:04.427Z,2.90
2023-03-15T19:26:38.817Z,2.90
2023-03-15T19:29:11.886Z,2.90
2023-03-15T19:31:45.084Z,2.90
2023-03-15T19:34:18.182Z,3.00
2023-03-15T19:36:51.601Z,2.90
2023-03-15T19:39:24.694Z,2.90
2023-03-15T19:41:59.152Z,2.90
2023-03-15T19:44:32.521Z,2.90
2023-03-15T19:47:05.529Z,2.80
2023-03-15T19:49:38.566Z,2.80
2023-03-15T19:52:14.358Z,2.80
2023-03-15T19:54:48.549Z,2.80
2023-03-15T19:57:23.397Z,2.80
2023-03-15T19:59:56.517Z,2.80
2023-03-15T20:02:31.882Z,2.90
2023-03-15T20:05:08.497Z,2.80
2023-03-15T20:07:42.514Z,2.80
2023-03-15T20:10:16.105Z,2.70
2023-03-15T20:12:50.484Z,2.60
2023-03-15T20:15:23.604Z,2.50
2023-03-15T20:17:56.600Z,2.50
2023-03-15T20:20:29.685Z,2.40
2023-03-15T20:23:03.634Z,2.40
2023-03-15T20:25:37.016Z,2.30
2023-03-15T20:28:11.957Z,2.30
2023-03-15T20:30:45.065Z,2.20
2023-03-15T20:33:18.118Z,2.10
2023-03-15T20:35:51.213Z,2.10
2023-03-15T20:38:24.338Z,2.10
2023-03-15T20:40:58.310Z,2.00
2023-03-15T20:43:33.383Z,2.00
2023-03-15T20:46:06.866Z,1.90
2023-03-15T20:48:40.457Z,1.90
2023-03-15T20:51:13.489Z,1.80
2023-03-15T20:53:46.523Z,1.80
2023-03-15T20:56:22.025Z,1.80
2023-03-15T20:58:56.417Z,1.80
2023-03-15T21:01:29.449Z,1.80
2023-03-15T21:04:02.512Z,1.70
2023-03-15T21:06:35.663Z,1.70
2023-03-15T21:09:08.710Z,1.60
2023-03-15T21:11:42.512Z,1.50
2023-03-15T21:14:17.015Z,1.50
2023-03-15T21:16:50.071Z,1.50
2023-03-15T21:19:24.751Z,1.40
2023-03-15T21:21:59.046Z,1.40
2023-03-15T21:24:40.658Z,1.40
2023-03-15T21:27:16.944Z,1.30
2023-03-15T21:29:51.310Z,1.30
2023-03-15T21:32:24.921Z,1.30
2023-03-15T21:34:58.033Z,1.30
2023-03-15T21:37:31.125Z,1.20
2023-03-15T21:40:06.383Z,1.30
2023-03-15T21:42:39.901Z,1.20
2023-03-15T21:45:14.580Z,1.20
2023-03-15T21:47:47.640Z,1.10
2023-03-15T21:50:23.186Z,1.10
2023-03-15T21:52:56.482Z,1.10
2023-03-15T21:55:32.385Z,1.10
2023-03-15T21:58:05.831Z,1.00
2023-03-15T22:00:40.255Z,1.00
2023-03-15T22:03:14.092Z,1.00
2023-03-15T22:05:47.337Z,1.00
2023-03-15T22:08:21.201Z,0.90
2023-03-15T22:10:55.284Z,0.90
2023-03-15T22:13:30.102Z,0.80
2023-03-15T22:16:05.084Z,0.60
2023-03-15T22:18:38.224Z,0.50
2023-03-15T22:21:11.318Z,0.50
2023-03-15T22:23:45.091Z,0.50
2023-03-15T22:26:18.141Z,0.60
2023-03-15T22:28:52.534Z,0.60
2023-03-15T22:31:27.001Z,0.60
2023-03-15T22:34:00.300Z,0.60
2023-03-15T22:36:34.429Z,0.50
2023-03-15T22:39:07.619Z,0.50
2023-03-15T22:41:40.748Z,0.60
2023-03-15T22:44:13.771Z,0.50
2023-03-15T22:46:48.265Z,0.40
2023-03-15T22:49:21.288Z,0.50
2023-03-15T22:51:54.325Z,0.50
2023-03-15T22:54:27.377Z,0.50
2023-03-15T22:57:01.317Z,0.50
2023-03-15T22:59:34.499Z,0.50
2023-03-15T23:02:09.159Z,0.50
2023-03-15T23:04:45.179Z,0.40
2023-03-15T23:07:18.496Z,0.40
2023-03-15T23:09:52.242Z,0.40
2023-03-15T23:12:35.870Z,0.30
2023-03-15T23:15:12.013Z,0.30
2023-03-15T23:17:47.034Z,0.40
2023-03-15T23:20:20.772Z,0.40
2023-03-15T23:22:53.778Z,0.30
2023-03-15T23:25:28.865Z,0.20
2023-03-15T23:28:01.912Z,0.20
2023-03-15T23:30:36.349Z,0.20
2023-03-15T23:33:10.882Z,0.20
2023-03-15T23:35:44.228Z,0.20
2023-03-15T23:38:17.407Z,0.10
2023-03-15T23:40:55.398Z,0.10
2023-03-15T23:43:28.964Z,0.00
2023-03-15T23:46:04.801Z,0.00
2023-03-15T23:48:39.365Z,0.00
2023-03-15T23:51:13.039Z,-0.10
2023-03-15T23:53:46.143Z,-0.10
2023-03-15T23:56:19.331Z,-0.20
2023-03-15T23:58:52.451Z,-0.20
